Time;durP1;ratioP1;P1;durP2;ratioP2;P2;SDS_P1;SDS_P2;PMS_P1;PMS_P2;Temp;Humidity;BMP_temperature;BMP_pressure;BME280_temperature;BME280_humidity;BME280_pressure;Samples;Min_cycle;Max_cycle;Signal;HPM_P1;HPM_P2
2023/09/26 00:00:24;;;;;;;5.07;3.83;;;;;;;;;;6233986;23;20421;-91
2023/09/26 00:02:54;;;;;;;6.17;3.90;;;;;;;;;;6231564;23;20385;-92
2023/09/26 00:05:20;;;;;;;3.97;3.57;;;;;;;;;;6231469;23;20382;-91
2023/09/26 00:07:48;;;;;;;3.93;3.20;;;;;;;;;;6231218;23;20434;-91
2023/09/26 00:10:16;;;;;;;7.07;3.43;;;;;;;;;;6260701;23;20386;-91
2023/09/26 00:12:43;;;;;;;6.07;3.77;;;;;;;;;;6239912;23;20390;-91
2023/09/26 00:15:11;;;;;;;3.90;3.20;;;;;;;;;;6232203;23;20823;-90
2023/09/26 00:17:37;;;;;;;3.13;2.90;;;;;;;;;;6237164;23;20413;-91
2023/09/26 00:20:10;;;;;;;8.03;4.27;;;;;;;;;;6229860;23;20414;-92
2023/09/26 00:22:36;;;;;;;4.17;3.47;;;;;;;;;;6232184;23;20390;-91
2023/09/26 00:25:03;;;;;;;5.40;3.67;;;;;;;;;;6255553;22;20378;-91
2023/09/26 00:27:29;;;;;;;6.17;3.83;;;;;;;;;;6238761;22;20488;-91
2023/09/26 00:29:55;;;;;;;6.30;3.47;;;;;;;;;;6236205;22;20461;-92
2023/09/26 00:32:21;;;;;;;4.63;3.30;;;;;;;;;;6238640;22;20369;-91
2023/09/26 00:34:47;;;;;;;3.63;3.33;;;;;;;;;;6237438;22;20396;-90
2023/09/26 00:37:14;;;;;;;3.87;3.47;;;;;;;;;;6240349;22;20385;-89
2023/09/26 00:39:40;;;;;;;4.37;3.93;;;;;;;;;;6236076;22;20432;-90
2023/09/26 00:42:06;;;;;;;4.23;3.83;;;;;;;;;;6236505;22;20393;-90
2023/09/26 00:44:32;;;;;;;4.37;3.97;;;;;;;;;;6236400;22;20373;-90
2023/09/26 00:47:03;;;;;;;4.40;3.27;;;;;;;;;;6203578;23;20359;-89
2023/09/26 00:49:30;;;;;;;3.93;3.50;;;;;;;;;;6173795;23;20487;-90
2023/09/26 00:51:57;;;;;;;4.70;4.10;;;;;;;;;;6172729;23;20402;-90
2023/09/26 00:54:23;;;;;;;4.07;3.77;;;;;;;;;;6173242;23;20375;-89
2023/09/26 00:56:52;;;;;;;4.20;3.80;;;;;;;;;;6176381;23;20478;-90
2023/09/26 00:59:18;;;;;;;5.53;3.90;;;;;;;;;;6173578;23;20387;-90
2023/09/26 01:01:46;;;;;;;4.03;3.00;;;;;;;;;;6177257;23;20371;-90
2023/09/26 01:04:12;;;;;;;4.27;3.87;;;;;;;;;;6110547;23;20377;-90
2023/09/26 01:06:38;;;;;;;4.03;3.60;;;;;;;;;;6112404;23;20381;-90
2023/09/26 01:09:06;;;;;;;4.27;3.87;;;;;;;;;;6112563;23;20378;-90
2023/09/26 01:11:32;;;;;;;4.47;4.03;;;;;;;;;;6109542;23;20737;-91
2023/09/26 01:13:57;;;;;;;5.30;4.10;;;;;;;;;;6075400;23;20950;-90
2023/09/26 01:16:24;;;;;;;4.27;3.70;;;;;;;;;;6077340;23;20466;-88
2023/09/26 01:18:53;;;;;;;6.30;3.13;;;;;;;;;;6102141;23;20470;-90
2023/09/26 01:21:34;;;;;;;5.10;4.60;;;;;;;;;;6109912;23;20819;-91
2023/09/26 01:24:00;;;;;;;5.80;4.10;;;;;;;;;;6135668;23;20772;-91
2023/09/26 01:26:34;;;;;;;5.33;4.30;;;;;;;;;;6086458;23;20394;-91
2023/09/26 01:29:00;;;;;;;5.07;3.63;;;;;;;;;;6088051;23;20820;-91
2023/09/26 01:31:26;;;;;;;5.07;3.67;;;;;;;;;;6084764;23;20377;-91
2023/09/26 01:33:53;;;;;;;5.73;4.30;;;;;;;;;;6088006;23;20430;-91
2023/09/26 01:36:19;;;;;;;5.50;3.67;;;;;;;;;;6084387;23;20749;-91
2023/09/26 01:38:46;;;;;;;4.50;4.10;;;;;;;;;;6084685;23;20394;-92
2023/09/26 01:41:12;;;;;;;6.70;3.30;;;;;;;;;;6111729;23;20555;-91
2023/09/26 01:43:38;;;;;;;3.50;3.20;;;;;;;;;;6085245;23;20366;-90
2023/09/26 01:46:06;;;;;;;3.73;3.30;;;;;;;;;;6168218;23;20376;-91
2023/09/26 01:48:32;;;;;;;4.00;3.60;;;;;;;;;;6206530;22;20833;-91
2023/09/26 01:51:06;;;;;;;4.17;3.77;;;;;;;;;;6234817;22;20392;-91
2023/09/26 01:53:32;;;;;;;4.00;3.50;;;;;;;;;;6260007;22;20381;-91
2023/09/26 01:56:29;;;;;;;4.50;3.60;;;;;;;;;;6233241;22;20519;-91
2023/09/26 01:58:55;;;;;;;4.57;3.40;;;;;;;;;;6259574;22;20397;-91
2023/09/26 02:01:21;;;;;;;5.20;3.60;;;;;;;;;;6233616;22;20434;-91
2023/09/26 02:03:47;;;;;;;3.80;3.40;;;;;;;;;;6233522;22;20437;-91
2023/09/26 02:06:13;;;;;;;4.63;3.27;;;;;;;;;;6235328;22;20455;-91
2023/09/26 02:08:39;;;;;;;4.37;3.97;;;;;;;;;;6196647;23;20410;-91
2023/09/26 02:11:05;;;;;;;4.30;3.70;;;;;;;;;;6172497;23;20402;-90
2023/09/26 02:13:32;;;;;;;5.30;3.97;;;;;;;;;;6172729;23;20514;-91
2023/09/26 02:16:01;;;;;;;4.07;3.70;;;;;;;;;;6175943;23;20746;-90
2023/09/26 02:18:28;;;;;;;4.60;4.00;;;;;;;;;;6175800;23;20389;-92
2023/09/26 02:20:54;;;;;;;4.20;3.80;;;;;;;;;;6196844;23;20419;-91
2023/09/26 02:23:20;;;;;;;4.37;3.97;;;;;;;;;;6171564;23;20792;-91
2023/09/26 02:25:55;;;;;;;3.97;3.60;;;;;;;;;;6170987;23;20480;-90
2023/09/26 02:28:21;;;;;;;7.90;4.53;;;;;;;;;;6178663;23;20409;-91
2023/09/26 02:30:49;;;;;;;4.20;3.80;;;;;;;;;;6172160;23;20402;-91
2023/09/26 02:33:15;;;;;;;2.90;2.67;;;;;;;;;;6199730;23;20434;-91
2023/09/26 02:35:41;;;;;;;4.57;4.00;;;;;;;;;;6196252;23;20379;-91
2023/09/26 02:38:08;;;;;;;4.00;2.90;;;;;;;;;;6172348;23;20418;-91
2023/09/26 02:40:35;;;;;;;4.10;3.43;;;;;;;;;;6228547;22;20413;-90
2023/09/26 02:43:02;;;;;;;4.03;3.63;;;;;;;;;;6262973;22;20392;-90
2023/09/26 02:45:30;;;;;;;3.50;3.20;;;;;;;;;;6233556;22;20378;-91
2023/09/26 02:47:56;;;;;;;4.13;3.73;;;;;;;;;;6236845;22;20369;-90
2023/09/26 02:50:23;;;;;;;8.50;4.07;;;;;;;;;;6259543;22;20365;-90
2023/09/26 02:52:49;;;;;;;4.40;3.40;;;;;;;;;;6236137;22;20451;-90
2023/09/26 02:55:15;;;;;;;8.50;3.90;;;;;;;;;;6234208;22;20427;-90
2023/09/26 02:57:41;;;;;;;4.30;3.27;;;;;;;;;;6234624;22;20376;-91
2023/09/26 03:00:16;;;;;;;5.60;4.00;;;;;;;;;;6233351;22;20413;-91
2023/09/26 03:02:42;;;;;;;5.03;3.97;;;;;;;;;;6243441;22;20373;-90
2023/09/26 03:05:09;;;;;;;5.00;3.90;;;;;;;;;;6233190;22;20833;-91
2023/09/26 03:07:35;;;;;;;6.40;4.60;;;;;;;;;;6235489;22;20404;-91
2023/09/26 03:10:02;;;;;;;9.60;6.37;;;;;;;;;;6232730;22;20400;-91
2023/09/26 03:12:28;;;;;;;11.10;5.87;;;;;;;;;;6235193;22;20385;-90
2023/09/26 03:14:58;;;;;;;10.80;8.13;;;;;;;;;;6233611;22;20392;-91
2023/09/26 03:17:24;;;;;;;11.50;6.47;;;;;;;;;;6242407;22;20393;-90
2023/09/26 03:19:50;;;;;;;9.50;6.60;;;;;;;;;;6233873;22;20416;-90
2023/09/26 03:22:16;;;;;;;9.43;5.33;;;;;;;;;;6235223;22;20452;-91
2023/09/26 03:24:42;;;;;;;7.23;5.90;;;;;;;;;;6236138;22;20432;-91
2023/09/26 03:27:08;;;;;;;10.57;5.27;;;;;;;;;;6235767;22;20393;-91
2023/09/26 03:29:34;;;;;;;4.83;4.30;;;;;;;;;;6234682;22;20442;-90
2023/09/26 03:32:05;;;;;;;8.13;4.90;;;;;;;;;;6240296;22;20361;-90
2023/09/26 03:34:31;;;;;;;4.10;3.70;;;;;;;;;;6262541;22;20376;-91
2023/09/26 03:36:57;;;;;;;3.77;3.33;;;;;;;;;;6235842;22;20377;-91
2023/09/26 03:39:23;;;;;;;4.10;3.70;;;;;;;;;;6229621;23;20409;-91
2023/09/26 03:41:49;;;;;;;5.13;4.60;;;;;;;;;;6227885;23;20378;-91
2023/09/26 03:44:15;;;;;;;5.50;3.70;;;;;;;;;;6230071;23;20406;-91
2023/09/26 03:46:41;;;;;;;4.53;4.10;;;;;;;;;;6229067;23;20430;-90
2023/09/26 03:49:07;;;;;;;4.27;3.70;;;;;;;;;;6232981;23;20392;-93
2023/09/26 03:51:33;;;;;;;4.17;3.80;;;;;;;;;;6230023;23;20429;-94
2023/09/26 03:53:59;;;;;;;4.27;3.87;;;;;;;;;;6231340;23;20359;-93
2023/09/26 03:56:25;;;;;;;5.70;4.23;;;;;;;;;;6229419;23;20379;-92
2023/09/26 03:58:53;;;;;;;5.73;4.37;;;;;;;;;;6226608;23;20434;-91
2023/09/26 04:01:19;;;;;;;4.87;4.07;;;;;;;;;;6196717;23;20486;-92
2023/09/26 04:03:48;;;;;;;5.87;3.70;;;;;;;;;;6203993;23;20391;-92
2023/09/26 04:06:15;;;;;;;5.60;3.90;;;;;;;;;;6195524;23;20462;-92
2023/09/26 04:08:41;;;;;;;4.03;3.73;;;;;;;;;;6200496;23;20391;-92
2023/09/26 04:11:15;;;;;;;4.03;3.47;;;;;;;;;;6248602;23;20402;-92
2023/09/26 04:13:42;;;;;;;5.73;3.77;;;;;;;;;;6203993;23;20433;-93
2023/09/26 04:16:08;;;;;;;4.77;4.37;;;;;;;;;;6204489;23;20381;-93
2023/09/26 04:18:37;;;;;;;4.67;4.03;;;;;;;;;;6201079;23;20381;-91
2023/09/26 04:21:04;;;;;;;5.27;4.70;;;;;;;;;;6223898;23;20453;-90
2023/09/26 04:23:30;;;;;;;3.93;3.30;;;;;;;;;;6196566;23;20447;-90
2023/09/26 04:25:56;;;;;;;5.40;4.20;;;;;;;;;;6197681;23;21259;-89
2023/09/26 04:28:22;;;;;;;4.03;3.70;;;;;;;;;;6198543;23;20419;-92
2023/09/26 04:30:49;;;;;;;4.77;4.27;;;;;;;;;;6231897;23;20406;-91
2023/09/26 04:33:40;;;;;;;4.93;4.50;;;;;;;;;;6205182;23;20733;-91
2023/09/26 04:36:06;;;;;;;8.17;3.90;;;;;;;;;;6231916;23;20390;-91
2023/09/26 04:38:32;;;;;;;9.30;5.27;;;;;;;;;;6203222;23;20370;-91
2023/09/26 04:41:00;;;;;;;5.23;4.73;;;;;;;;;;6206499;23;20430;-90
2023/09/26 04:43:26;;;;;;;5.40;4.60;;;;;;;;;;6205582;23;20452;-90
2023/09/26 04:45:53;;;;;;;5.70;5.20;;;;;;;;;;6204755;23;20396;-91
2023/09/26 04:48:19;;;;;;;5.63;4.90;;;;;;;;;;6201755;23;20497;-90
2023/09/26 04:50:45;;;;;;;4.53;4.10;;;;;;;;;;6205633;23;20402;-91
2023/09/26 04:53:11;;;;;;;4.47;3.97;;;;;;;;;;6202524;23;20452;-90
2023/09/26 04:55:40;;;;;;;5.40;4.90;;;;;;;;;;6216574;22;20369;-90
2023/09/26 04:58:07;;;;;;;5.50;4.20;;;;;;;;;;6234753;22;20432;-90
2023/09/26 05:00:33;;;;;;;6.80;4.97;;;;;;;;;;6239075;22;20468;-91
2023/09/26 05:02:59;;;;;;;6.07;4.53;;;;;;;;;;6233189;22;20396;-91
2023/09/26 05:05:31;;;;;;;7.70;5.73;;;;;;;;;;6243393;22;20381;-91
2023/09/26 05:07:57;;;;;;;5.60;4.87;;;;;;;;;;6200389;23;20391;-92
2023/09/26 05:10:28;;;;;;;6.83;4.30;;;;;;;;;;6173511;23;20616;-91
2023/09/26 05:12:54;;;;;;;4.30;3.90;;;;;;;;;;6173252;23;20383;-92
2023/09/26 05:15:20;;;;;;;9.20;4.27;;;;;;;;;;6172127;23;21086;-91
2023/09/26 05:17:47;;;;;;;8.53;4.73;;;;;;;;;;6137355;23;20420;-90
2023/09/26 05:20:13;;;;;;;5.90;4.80;;;;;;;;;;6141404;23;20479;-91
2023/09/26 05:22:46;;;;;;;4.80;4.40;;;;;;;;;;6138241;23;20388;-90
2023/09/26 05:25:12;;;;;;;7.33;4.57;;;;;;;;;;6140966;23;20388;-90
2023/09/26 05:27:40;;;;;;;9.87;6.07;;;;;;;;;;6135778;23;20405;-90
2023/09/26 05:30:06;;;;;;;5.97;5.37;;;;;;;;;;6141634;23;20744;-90
2023/09/26 05:32:33;;;;;;;6.47;4.80;;;;;;;;;;6138340;23;20472;-89
2023/09/26 05:34:59;;;;;;;6.03;5.10;;;;;;;;;;6138016;23;20745;-91
2023/09/26 05:37:25;;;;;;;8.60;5.37;;;;;;;;;;6138220;23;20402;-90
2023/09/26 05:39:51;;;;;;;6.77;5.03;;;;;;;;;;6171166;23;20483;-90
2023/09/26 05:42:17;;;;;;;8.37;5.03;;;;;;;;;;6142519;23;20426;-89
2023/09/26 05:44:43;;;;;;;6.27;4.97;;;;;;;;;;6141447;23;20392;-88
2023/09/26 05:47:09;;;;;;;5.93;4.93;;;;;;;;;;6166976;23;20372;-90
2023/09/26 05:49:35;;;;;;;7.80;4.67;;;;;;;;;;6143734;23;20411;-89
2023/09/26 05:52:02;;;;;;;7.43;5.60;;;;;;;;;;6141431;23;20388;-89
2023/09/26 05:54:30;;;;;;;9.57;4.93;;;;;;;;;;6162973;22;20378;-90
2023/09/26 05:56:56;;;;;;;7.47;4.40;;;;;;;;;;6232201;22;20445;-90
2023/09/26 05:59:24;;;;;;;4.90;4.40;;;;;;;;;;6233196;22;20387;-90
2023/09/26 06:01:50;;;;;;;6.17;5.20;;;;;;;;;;6233861;22;20377;-90
2023/09/26 06:04:16;;;;;;;6.77;4.70;;;;;;;;;;6257138;22;20411;-90
2023/09/26 06:06:42;;;;;;;9.63;6.17;;;;;;;;;;6232909;22;20697;-90
2023/09/26 06:09:08;;;;;;;6.47;5.30;;;;;;;;;;6234078;22;20370;-89
2023/09/26 06:11:35;;;;;;;5.77;4.80;;;;;;;;;;6235087;22;20859;-89
2023/09/26 06:14:08;;;;;;;8.10;6.17;;;;;;;;;;6235469;22;20380;-88
2023/09/26 06:16:39;;;;;;;12.53;7.20;;;;;;;;;;6262818;22;20393;-89
2023/09/26 06:19:07;;;;;;;6.90;6.00;;;;;;;;;;6235414;22;20379;-89
2023/09/26 06:21:33;;;;;;;6.70;5.90;;;;;;;;;;6236238;22;20441;-89
2023/09/26 06:23:59;;;;;;;14.63;6.63;;;;;;;;;;6233349;22;20372;-89
2023/09/26 06:26:25;;;;;;;5.40;4.47;;;;;;;;;;6258061;22;20363;-90
2023/09/26 06:28:52;;;;;;;6.47;5.73;;;;;;;;;;6234602;22;20409;-89
2023/09/26 06:31:19;;;;;;;6.43;4.60;;;;;;;;;;6199621;23;20926;-88
2023/09/26 06:33:44;;;;;;;11.00;6.37;;;;;;;;;;6171085;23;20375;-88
2023/09/26 06:36:11;;;;;;;7.07;6.40;;;;;;;;;;6172890;23;20422;-89
2023/09/26 06:38:39;;;;;;;6.73;5.30;;;;;;;;;;6171853;23;20388;-88
2023/09/26 06:41:08;;;;;;;6.50;4.60;;;;;;;;;;6173517;23;20418;-88
2023/09/26 06:43:41;;;;;;;6.97;5.77;;;;;;;;;;6173170;23;20379;-89
2023/09/26 06:46:08;;;;;;;7.20;5.57;;;;;;;;;;6206310;23;20401;-90
2023/09/26 06:48:42;;;;;;;7.27;5.73;;;;;;;;;;6172588;23;20391;-89
2023/09/26 06:51:08;;;;;;;6.70;4.97;;;;;;;;;;6180078;23;20374;-93
2023/09/26 06:53:35;;;;;;;8.07;5.23;;;;;;;;;;6171219;23;20902;-90
2023/09/26 06:56:05;;;;;;;8.83;5.93;;;;;;;;;;6196405;23;20393;-90
2023/09/26 06:58:31;;;;;;;6.63;4.87;;;;;;;;;;6171226;23;20383;-90
2023/09/26 07:00:57;;;;;;;6.27;5.43;;;;;;;;;;6176012;23;20431;-89
2023/09/26 07:03:35;;;;;;;4.93;4.53;;;;;;;;;;6198969;23;20362;-89
2023/09/26 07:06:07;;;;;;;5.57;4.77;;;;;;;;;;6171997;23;20387;-89
2023/09/26 07:08:33;;;;;;;6.83;5.10;;;;;;;;;;6172432;23;20375;-88
2023/09/26 07:11:03;;;;;;;6.30;4.90;;;;;;;;;;6173681;23;20386;-89
2023/09/26 07:13:29;;;;;;;4.63;3.87;;;;;;;;;;6171999;23;20386;-90
2023/09/26 07:16:00;;;;;;;6.23;4.93;;;;;;;;;;6224479;22;20445;-91
2023/09/26 07:18:26;;;;;;;7.37;4.87;;;;;;;;;;6232815;22;20448;-90
2023/09/26 07:20:53;;;;;;;5.80;4.70;;;;;;;;;;6237967;22;20417;-90
2023/09/26 07:23:19;;;;;;;7.60;5.40;;;;;;;;;;6230855;22;20481;-90
2023/09/26 07:25:45;;;;;;;8.07;6.53;;;;;;;;;;6232450;22;20476;-89
2023/09/26 07:28:11;;;;;;;5.60;5.10;;;;;;;;;;6231052;22;20423;-89
2023/09/26 07:30:39;;;;;;;5.73;5.23;;;;;;;;;;6232961;22;20424;-89
2023/09/26 07:33:05;;;;;;;13.40;6.17;;;;;;;;;;6231654;22;20381;-89
2023/09/26 07:35:31;;;;;;;6.63;5.30;;;;;;;;;;6237154;22;20796;-89
2023/09/26 07:37:58;;;;;;;6.50;4.77;;;;;;;;;;6232347;22;20460;-89
2023/09/26 07:40:24;;;;;;;6.10;4.80;;;;;;;;;;6235606;22;20470;-90
2023/09/26 07:42:50;;;;;;;7.30;5.70;;;;;;;;;;6232212;22;20369;-89
2023/09/26 07:45:16;;;;;;;7.73;5.50;;;;;;;;;;6232660;22;20377;-89
2023/09/26 07:47:45;;;;;;;6.57;5.30;;;;;;;;;;6233301;22;20435;-90
2023/09/26 07:50:11;;;;;;;6.60;5.10;;;;;;;;;;6235734;22;20401;-90
2023/09/26 07:52:39;;;;;;;6.23;5.30;;;;;;;;;;6256696;22;20361;-90
2023/09/26 07:55:06;;;;;;;5.10;4.60;;;;;;;;;;6240139;22;20455;-90
2023/09/26 07:57:31;;;;;;;14.00;4.53;;;;;;;;;;6260550;22;20345;-90
2023/09/26 07:59:58;;;;;;;7.03;4.73;;;;;;;;;;6236457;22;20416;-90
2023/09/26 08:02:24;;;;;;;7.30;5.50;;;;;;;;;;6232140;22;20384;-90
2023/09/26 08:04:50;;;;;;;7.50;4.27;;;;;;;;;;6233196;22;20433;-89
2023/09/26 08:07:16;;;;;;;6.63;5.37;;;;;;;;;;6257909;22;20368;-90
2023/09/26 08:09:43;;;;;;;8.07;5.00;;;;;;;;;;6236005;22;20373;-90
2023/09/26 08:12:09;;;;;;;5.47;4.83;;;;;;;;;;6232580;22;20373;-90
2023/09/26 08:14:35;;;;;;;6.13;4.37;;;;;;;;;;6232529;22;20708;-90
2023/09/26 08:17:01;;;;;;;7.80;5.20;;;;;;;;;;6231229;22;20381;-89
2023/09/26 08:19:27;;;;;;;7.87;4.70;;;;;;;;;;6233330;22;20531;-89
2023/09/26 08:21:54;;;;;;;6.40;4.53;;;;;;;;;;6233468;22;20381;-89
2023/09/26 08:24:47;;;;;;;6.10;5.10;;;;;;;;;;6238570;22;20400;-90
2023/09/26 08:27:14;;;;;;;5.27;4.77;;;;;;;;;;6253301;22;20407;-89
2023/09/26 08:29:41;;;;;;;6.07;4.60;;;;;;;;;;6234098;22;20736;-88
2023/09/26 08:32:07;;;;;;;6.50;4.93;;;;;;;;;;6237121;22;20566;-89
2023/09/26 08:34:33;;;;;;;6.30;4.83;;;;;;;;;;6235445;22;20373;-90
2023/09/26 08:36:59;;;;;;;4.80;4.07;;;;;;;;;;6233519;22;20373;-90
2023/09/26 08:39:24;;;;;;;5.60;4.93;;;;;;;;;;6235106;22;20374;-90
2023/09/26 08:41:50;;;;;;;5.10;4.20;;;;;;;;;;6234669;22;20873;-90
2023/09/26 08:44:16;;;;;;;7.50;4.70;;;;;;;;;;6258913;22;20397;-91
2023/09/26 08:46:45;;;;;;;8.10;4.50;;;;;;;;;;6239677;22;20385;-89
2023/09/26 08:49:11;;;;;;;7.77;4.50;;;;;;;;;;6263367;22;20461;-90
2023/09/26 08:51:39;;;;;;;9.97;4.70;;;;;;;;;;6226121;23;20881;-90
2023/09/26 08:54:05;;;;;;;7.43;5.23;;;;;;;;;;6228547;23;20729;-90
2023/09/26 08:56:33;;;;;;;5.50;4.23;;;;;;;;;;6227923;23;20390;-90
2023/09/26 08:58:59;;;;;;;7.20;4.80;;;;;;;;;;6228818;23;20391;-89
2023/09/26 09:01:25;;;;;;;6.70;4.40;;;;;;;;;;6229003;23;20425;-90
2023/09/26 09:03:51;;;;;;;4.90;4.47;;;;;;;;;;6230461;23;20382;-90
2023/09/26 09:06:18;;;;;;;8.43;4.67;;;;;;;;;;6228576;23;20441;-89
2023/09/26 09:08:49;;;;;;;8.47;4.80;;;;;;;;;;6227907;23;20382;-90
2023/09/26 09:11:16;;;;;;;7.23;5.00;;;;;;;;;;6254362;23;20366;-90
2023/09/26 09:13:42;;;;;;;12.33;4.93;;;;;;;;;;6228375;23;20362;-89
2023/09/26 09:16:15;;;;;;;7.80;5.30;;;;;;;;;;6227541;23;20405;-90
2023/09/26 09:19:17;;;;;;;5.87;4.30;;;;;;;;;;6228063;23;20493;-89
2023/09/26 09:21:43;;;;;;;6.53;4.30;;;;;;;;;;6110587;23;20428;-90
2023/09/26 09:24:09;;;;;;;7.47;4.83;;;;;;;;;;6137117;23;20436;-89
2023/09/26 09:26:37;;;;;;;6.53;5.10;;;;;;;;;;6136044;23;20400;-90
2023/09/26 09:29:15;;;;;;;5.10;4.57;;;;;;;;;;6139210;23;20369;-90
2023/09/26 09:31:41;;;;;;;7.30;5.13;;;;;;;;;;6139995;23;20416;-90
2023/09/26 09:34:07;;;;;;;6.67;5.57;;;;;;;;;;6137826;23;20732;-90
2023/09/26 09:36:33;;;;;;;5.40;4.90;;;;;;;;;;6137428;23;20468;-91
2023/09/26 09:38:59;;;;;;;5.47;4.90;;;;;;;;;;6138293;23;20389;-91
2023/09/26 09:41:25;;;;;;;5.53;5.00;;;;;;;;;;6137606;23;20785;-90
2023/09/26 09:43:51;;;;;;;5.83;5.00;;;;;;;;;;6136707;23;20385;-90
2023/09/26 09:46:17;;;;;;;7.23;5.23;;;;;;;;;;6160149;23;20448;-89
2023/09/26 09:49:25;;;;;;;5.63;5.13;;;;;;;;;;6138270;23;20376;-90
2023/09/26 09:51:51;;;;;;;9.93;4.70;;;;;;;;;;6105712;23;20385;-91
2023/09/26 09:54:18;;;;;;;9.20;5.30;;;;;;;;;;6108498;23;20724;-90
2023/09/26 09:56:47;;;;;;;8.60;5.20;;;;;;;;;;6106696;23;20367;-90
2023/09/26 09:59:15;;;;;;;10.00;4.80;;;;;;;;;;6186634;23;20437;-89
2023/09/26 10:01:44;;;;;;;4.77;4.37;;;;;;;;;;6197463;23;20414;-90
2023/09/26 10:04:10;;;;;;;6.07;5.47;;;;;;;;;;6172675;23;20403;-90
2023/09/26 10:06:38;;;;;;;5.30;4.80;;;;;;;;;;6170828;23;20391;-89
2023/09/26 10:09:04;;;;;;;6.57;5.37;;;;;;;;;;6169953;23;20425;-90
2023/09/26 10:11:30;;;;;;;4.83;4.40;;;;;;;;;;6171390;23;20390;-91
2023/09/26 10:13:59;;;;;;;5.50;4.80;;;;;;;;;;6174593;23;20375;-91
2023/09/26 10:16:25;;;;;;;4.57;4.17;;;;;;;;;;6222772;23;20399;-91
2023/09/26 10:19:14;;;;;;;7.80;5.60;;;;;;;;;;6177097;23;20424;-89
2023/09/26 10:21:41;;;;;;;10.03;5.03;;;;;;;;;;6197629;23;20433;-90
2023/09/26 10:24:13;;;;;;;5.07;4.57;;;;;;;;;;6173815;23;20815;-89
2023/09/26 10:26:49;;;;;;;7.73;4.50;;;;;;;;;;6195807;23;20390;-90
2023/09/26 10:29:15;;;;;;;7.63;4.47;;;;;;;;;;6172446;23;20445;-89
2023/09/26 10:31:42;;;;;;;6.03;5.00;;;;;;;;;;6199502;23;20383;-90
2023/09/26 10:34:08;;;;;;;5.40;4.63;;;;;;;;;;6171248;23;20402;-89
2023/09/26 10:36:34;;;;;;;7.97;4.63;;;;;;;;;;6230724;22;20463;-90
2023/09/26 10:39:00;;;;;;;9.93;4.70;;;;;;;;;;6231916;22;20393;-90
2023/09/26 10:41:27;;;;;;;6.07;3.80;;;;;;;;;;6234485;22;20462;-91
2023/09/26 10:43:54;;;;;;;4.53;3.90;;;;;;;;;;6234103;22;20461;-89
2023/09/26 10:46:20;;;;;;;5.10;3.67;;;;;;;;;;6237242;22;20892;-90
2023/09/26 10:48:46;;;;;;;3.93;3.40;;;;;;;;;;6232658;22;20393;-91
2023/09/26 10:51:12;;;;;;;5.47;4.30;;;;;;;;;;6242445;22;20389;-90
2023/09/26 10:53:38;;;;;;;7.10;4.40;;;;;;;;;;6233873;22;20365;-90
2023/09/26 10:56:04;;;;;;;7.57;5.10;;;;;;;;;;6233772;22;20381;-91
2023/09/26 10:58:33;;;;;;;5.80;3.73;;;;;;;;;;6232565;22;20399;-90
2023/09/26 11:00:59;;;;;;;6.10;4.23;;;;;;;;;;6261908;22;20410;-90
2023/09/26 11:03:25;;;;;;;5.80;3.80;;;;;;;;;;6230681;22;20382;-90
2023/09/26 11:05:51;;;;;;;4.93;3.50;;;;;;;;;;6232870;22;20386;-90
2023/09/26 11:08:18;;;;;;;5.70;3.90;;;;;;;;;;6233288;22;20381;-90
2023/09/26 11:10:48;;;;;;;3.83;3.13;;;;;;;;;;6234597;22;20456;-91
2023/09/26 11:13:14;;;;;;;3.47;2.80;;;;;;;;;;6234830;22;20430;-90
2023/09/26 11:15:40;;;;;;;7.30;3.10;;;;;;;;;;6237886;22;20381;-91
2023/09/26 11:18:10;;;;;;;2.87;2.03;;;;;;;;;;6235451;22;20417;-91
2023/09/26 11:20:37;;;;;;;4.13;2.90;;;;;;;;;;6237291;22;20420;-91
2023/09/26 11:23:03;;;;;;;3.60;2.90;;;;;;;;;;6237373;22;20381;-91
2023/09/26 11:25:31;;;;;;;3.57;2.80;;;;;;;;;;6243481;22;20373;-91
2023/09/26 11:27:57;;;;;;;3.83;3.47;;;;;;;;;;6263637;22;20475;-89
2023/09/26 11:30:23;;;;;;;3.63;2.70;;;;;;;;;;6236672;22;20380;-91
2023/09/26 11:32:52;;;;;;;4.33;2.60;;;;;;;;;;6235542;22;20385;-91
2023/09/26 11:35:19;;;;;;;2.27;2.07;;;;;;;;;;6236373;22;20434;-91
2023/09/26 11:37:49;;;;;;;4.93;2.83;;;;;;;;;;6235123;22;20900;-91
2023/09/26 11:40:25;;;;;;;4.03;2.60;;;;;;;;;;6235860;22;20425;-89
2023/09/26 11:42:52;;;;;;;3.10;2.37;;;;;;;;;;6235109;22;20411;-90
2023/09/26 11:45:21;;;;;;;2.33;2.13;;;;;;;;;;6236484;22;20404;-92
2023/09/26 11:47:47;;;;;;;6.00;2.70;;;;;;;;;;6233450;22;20401;-90
2023/09/26 11:50:13;;;;;;;5.23;2.70;;;;;;;;;;6260721;22;20372;-91
2023/09/26 11:52:40;;;;;;;2.63;2.33;;;;;;;;;;6234551;22;20397;-90
2023/09/26 11:55:16;;;;;;;2.77;2.47;;;;;;;;;;6201948;23;20390;-91
2023/09/26 11:57:43;;;;;;;3.60;2.30;;;;;;;;;;6197415;23;20461;-91
2023/09/26 12:00:11;;;;;;;2.20;1.90;;;;;;;;;;6174277;23;20466;-90
2023/09/26 12:02:42;;;;;;;4.00;2.30;;;;;;;;;;6174124;23;20512;-90
2023/09/26 12:05:08;;;;;;;2.90;2.20;;;;;;;;;;6172522;23;20391;-90
2023/09/26 12:07:38;;;;;;;2.53;2.03;;;;;;;;;;6173072;23;20390;-90
2023/09/26 12:10:04;;;;;;;2.50;2.30;;;;;;;;;;6173397;23;20394;-91
2023/09/26 12:12:30;;;;;;;3.97;2.27;;;;;;;;;;6139220;23;20722;-91
2023/09/26 12:15:15;;;;;;;4.80;1.87;;;;;;;;;;6136930;23;20384;-89
2023/09/26 12:17:41;;;;;;;4.37;1.50;;;;;;;;;;6139110;23;20867;-91
2023/09/26 12:20:08;;;;;;;2.10;1.90;;;;;;;;;;6135906;23;20420;-90
2023/09/26 12:22:34;;;;;;;2.10;1.50;;;;;;;;;;6136457;23;20387;-90
2023/09/26 12:25:00;;;;;;;3.00;1.80;;;;;;;;;;6140378;23;20399;-90
2023/09/26 12:27:26;;;;;;;2.23;1.80;;;;;;;;;;6147954;23;20910;-91
2023/09/26 12:29:52;;;;;;;2.30;2.10;;;;;;;;;;6143219;23;20687;-90
2023/09/26 12:32:18;;;;;;;3.27;2.10;;;;;;;;;;6144857;23;20368;-90
2023/09/26 12:34:44;;;;;;;2.57;1.97;;;;;;;;;;6143424;23;20383;-91
2023/09/26 12:37:10;;;;;;;2.40;2.00;;;;;;;;;;6142951;23;20387;-91
2023/09/26 12:39:36;;;;;;;3.97;1.70;;;;;;;;;;6140389;23;20384;-90
2023/09/26 12:42:03;;;;;;;5.13;2.27;;;;;;;;;;6142788;23;20947;-90
2023/09/26 12:44:29;;;;;;;2.50;1.77;;;;;;;;;;6226068;22;20740;-91
2023/09/26 12:46:55;;;;;;;2.90;1.80;;;;;;;;;;6233409;22;20381;-90
2023/09/26 12:49:21;;;;;;;2.80;1.77;;;;;;;;;;6232307;22;20966;-90
2023/09/26 12:51:47;;;;;;;2.23;1.50;;;;;;;;;;6236825;22;20438;-90
2023/09/26 12:54:14;;;;;;;2.30;1.97;;;;;;;;;;6232787;22;20401;-93
2023/09/26 12:56:40;;;;;;;5.50;2.10;;;;;;;;;;6236483;22;20445;-91
2023/09/26 12:59:06;;;;;;;2.90;1.73;;;;;;;;;;6234342;22;20451;-91
2023/09/26 13:01:32;;;;;;;2.77;1.70;;;;;;;;;;6267830;22;20397;-90
2023/09/26 13:03:58;;;;;;;2.67;1.53;;;;;;;;;;6231686;22;20373;-92
2023/09/26 13:06:27;;;;;;;3.10;1.70;;;;;;;;;;6258465;22;20790;-91
2023/09/26 13:08:53;;;;;;;2.63;2.10;;;;;;;;;;6235589;22;20407;-90
2023/09/26 13:11:19;;;;;;;1.70;1.50;;;;;;;;;;6233599;22;20861;-91
2023/09/26 13:13:46;;;;;;;2.97;1.60;;;;;;;;;;6232853;22;20499;-93
2023/09/26 13:16:13;;;;;;;2.57;1.87;;;;;;;;;;6237327;22;20382;-93
2023/09/26 13:18:39;;;;;;;2.00;1.50;;;;;;;;;;6237325;22;20468;-92
2023/09/26 13:21:05;;;;;;;3.93;1.70;;;;;;;;;;6239614;22;20440;-94
2023/09/26 13:23:33;;;;;;;2.63;1.80;;;;;;;;;;6236573;22;20381;-93
2023/09/26 13:26:01;;;;;;;7.17;2.43;;;;;;;;;;6236960;22;20753;-92
2023/09/26 13:28:27;;;;;;;2.40;1.70;;;;;;;;;;6237658;22;20397;-94
2023/09/26 13:31:03;;;;;;;2.40;1.80;;;;;;;;;;6241873;22;20447;-93
2023/09/26 13:33:30;;;;;;;2.27;1.90;;;;;;;;;;6151480;23;20387;-92
2023/09/26 13:35:55;;;;;;;2.13;1.90;;;;;;;;;;6169763;23;20376;-94
2023/09/26 13:38:23;;;;;;;2.13;1.50;;;;;;;;;;6171553;23;20406;-90
2023/09/26 13:40:49;;;;;;;3.80;1.83;;;;;;;;;;6169362;23;21205;-92
2023/09/26 13:43:16;;;;;;;2.20;2.00;;;;;;;;;;6171588;23;20388;-92
2023/09/26 13:45:43;;;;;;;2.40;1.90;;;;;;;;;;6170111;23;20415;-92
2023/09/26 13:48:09;;;;;;;2.33;2.00;;;;;;;;;;6171589;23;20384;-92
2023/09/26 13:50:35;;;;;;;4.27;1.90;;;;;;;;;;6175238;23;20387;-94
2023/09/26 13:53:01;;;;;;;3.23;2.63;;;;;;;;;;6170404;23;20392;-93
2023/09/26 13:55:28;;;;;;;4.43;1.80;;;;;;;;;;6170976;23;20407;-92
2023/09/26 13:57:54;;;;;;;2.20;1.80;;;;;;;;;;6163323;23;20463;-93
2023/09/26 14:00:22;;;;;;;3.37;2.77;;;;;;;;;;6140467;23;20428;-92
2023/09/26 14:02:52;;;;;;;2.97;2.40;;;;;;;;;;6147014;23;20413;-92
2023/09/26 14:05:20;;;;;;;2.00;1.80;;;;;;;;;;6140262;23;20377;-93
2023/09/26 14:07:46;;;;;;;3.17;2.03;;;;;;;;;;6140907;23;20395;-93
2023/09/26 14:10:12;;;;;;;2.50;1.60;;;;;;;;;;6158550;23;20376;-93
2023/09/26 14:12:40;;;;;;;2.17;1.97;;;;;;;;;;6206419;23;20398;-93
2023/09/26 14:15:06;;;;;;;2.33;1.80;;;;;;;;;;6206492;23;20381;-93
2023/09/26 14:17:32;;;;;;;1.90;1.50;;;;;;;;;;6203091;23;20517;-91
2023/09/26 14:19:58;;;;;;;2.47;1.67;;;;;;;;;;6203738;23;20409;-92
2023/09/26 14:22:24;;;;;;;3.53;1.33;;;;;;;;;;6167900;23;20425;-92
2023/09/26 14:24:50;;;;;;;2.67;2.10;;;;;;;;;;6171253;23;20380;-92
2023/09/26 14:27:17;;;;;;;3.23;2.20;;;;;;;;;;6166840;23;20404;-92
2023/09/26 14:29:43;;;;;;;3.03;1.90;;;;;;;;;;6136523;23;20436;-91
2023/09/26 14:32:09;;;;;;;2.73;1.87;;;;;;;;;;6141292;23;20417;-92
2023/09/26 14:34:35;;;;;;;3.33;2.00;;;;;;;;;;6138453;23;20456;-92
2023/09/26 14:37:04;;;;;;;5.20;1.77;;;;;;;;;;6144874;23;20392;-90
2023/09/26 14:39:30;;;;;;;3.00;2.00;;;;;;;;;;6163599;23;20678;-91
2023/09/26 14:41:56;;;;;;;2.87;1.97;;;;;;;;;;6140355;23;20412;-91
2023/09/26 14:44:23;;;;;;;2.70;2.33;;;;;;;;;;6136959;23;20388;-91